메인 페이지
METAR-TAF:

METAR-TAF

공항 :

배턴루지, 루이지애나, 미국

위도: 30-32-14N, 경도: 091-08-49W, 고도: 21m

현재 날씨관측

예보는 33분 전, 11:53시(UTC)에 발표되었습니다.
북북동3kt
온도 9°C
습도 100%
기압 1021 hPa
시정: 6.4km
고도 8500ft 상공 구름 조금
박무

METAR: KBTR 191153Z 03003KT 4SM BR FEW085 09/09 A3015 RMK AO2 SLP208 T00940089 10117 20094 55001

시각: 06:26 (12:26 UTC)

예보

예보는 45분 전, 11:41시(UTC)에 발표되었습니다.
예보 대상 시간: 19일 12시부터 20일 12시까지 (UTC)
여러 방향의 바람 3kt
시정: 10km
고도 12000ft 상공 구름 많음
일시적
19일 12시부터 19일 14시까지 (UTC)
시정: 8.0km
박무
19일 1800시부터 (UTC)
4kt
시정: 10km
고도 7000ft 상공 구름 많음
확률 30%
19일 21시부터 20일 03시까지 (UTC)
시정: 6.4km
고도 4000ft 상공 흐림
약한소나기
20일 0300시부터 (UTC)
여러 방향의 바람 3kt
시정: 10km
고도 2500ft 상공 흐림
약한소나기
20일 0600시부터 (UTC)
5kt
시정: 6.4km
고도 800ft 상공 흐림
약한비, 박무
20일 0900시부터 (UTC)
7kt
시정: 4.8km
고도 500ft 상공 흐림
박무, 시계 내 소나기

TAF: KBTR 191141Z 1912/2012 VRB03KT P6SM BKN120 TEMPO 1912/1914 5SM BR FM191800 17004KT P6SM BKN070 PROB30 1921/2003 4SM -SHRA OVC040 FM200300 VRB03KT P6SM -SHRA OVC025 FM200600 35005KT 4SM -RA BR OVC008 FM200900 35007KT 3SM BR VCSH OVC005

4,000개 이상의 공항 관측 자료 및 예보 (METAR 및 TAF 보고).

지도상에서 검색 가능한 기상관측소가 노란 점과 빨간 점으로 표시되어 있습니다.

기상관측소 명을 보려면 표시 위로 마우스를 이동하세요.

날씨 관측과 예보를 보려면 클릭하세요.

지도 변경 : 확대하려면 엑스 표시가 있는 녹색 버튼, 축소하려면 빼기 표시가 있는 녹색 버튼, 다음 페이지의 지도를 보려면 녹색 화살표를 클릭하세요.


METAR-TAF: